Time;durP1;ratioP1;P1;durP2;ratioP2;P2;SDS_P1;SDS_P2;PMS_P1;PMS_P2;Temp;Humidity;BMP_temperature;BMP_pressure;BME280_temperature;BME280_humidity;BME280_pressure;Samples;Min_cycle;Max_cycle;Signal;HPM_P1;HPM_P2
2021/12/28 00:00:59;;;;;;;32.22;17.02;;;4.20;99.90;;;;;;4975110;28;20034;-85
2021/12/28 00:03:25;;;;;;;36.53;19.30;;;3.90;99.90;;;;;;4958411;28;20473;-86
2021/12/28 00:05:51;;;;;;;33.63;19.38;;;4.10;99.90;;;;;;4974879;28;20046;-86
2021/12/28 00:08:19;;;;;;;38.17;19.05;;;4.20;99.90;;;;;;4974647;28;20050;-86
2021/12/28 00:10:45;;;;;;;36.63;20.80;;;4.10;99.90;;;;;;4990919;28;20065;-86
2021/12/28 00:13:12;;;;;;;31.80;18.75;;;3.80;99.90;;;;;;4974596;28;20062;-85
2021/12/28 00:18:23;;;;;;;32.53;18.75;;;3.70;99.90;;;;;;4975090;28;20069;-86
2021/12/28 00:20:55;;;;;;;32.03;17.90;;;4.30;99.90;;;;;;4958551;28;20054;-86
2021/12/28 00:23:31;;;;;;;38.15;20.73;;;4.90;99.90;;;;;;4974087;28;20050;-86
2021/12/28 00:25:57;;;;;;;39.03;20.77;;;5.20;99.90;;;;;;4958174;28;20520;-86
2021/12/28 00:28:23;;;;;;;44.88;23.08;;;4.50;99.90;;;;;;4958518;28;20053;-86
2021/12/28 00:30:50;;;;;;;45.13;22.67;;;5.20;99.90;;;;;;4974272;28;20081;-86
2021/12/28 00:33:17;;;;;;;56.70;25.40;;;3.80;99.90;;;;;;4957910;28;20050;-86
2021/12/28 00:35:44;;;;;;;47.42;26.02;;;4.50;99.90;;;;;;4974715;28;20070;-87
2021/12/28 00:38:14;;;;;;;52.67;25.75;;;5.60;99.90;;;;;;4958423;28;20050;-87
2021/12/28 00:40:40;;;;;;;58.42;26.23;;;5.50;99.90;;;;;;4974737;28;20374;-87
2021/12/28 00:43:07;;;;;;;58.10;26.92;;;4.60;99.90;;;;;;4993292;28;20206;-87
2021/12/28 00:45:33;;;;;;;52.80;26.10;;;4.60;99.90;;;;;;4958808;28;20066;-87
2021/12/28 00:47:58;;;;;;;59.08;28.05;;;4.00;99.90;;;;;;4974745;28;20050;-87
2021/12/28 00:50:27;;;;;;;54.33;28.17;;;5.00;99.90;;;;;;4974404;28;20046;-87
2021/12/28 00:52:55;;;;;;;63.17;29.77;;;4.90;99.90;;;;;;4990264;28;20494;-87
2021/12/28 00:55:21;;;;;;;61.38;29.05;;;4.70;99.90;;;;;;4974161;28;20058;-87
2021/12/28 00:57:47;;;;;;;66.40;30.05;;;4.60;99.90;;;;;;4990247;28;20054;-87
2021/12/28 01:00:18;;;;;;;67.45;30.17;;;5.00;99.90;;;;;;4958142;28;20046;-86
2021/12/28 01:02:44;;;;;;;62.70;31.15;;;4.80;99.90;;;;;;4992533;28;20039;-87
2021/12/28 01:05:12;;;;;;;69.65;31.45;;;5.60;99.90;;;;;;4958559;28;20053;-86
2021/12/28 01:07:38;;;;;;;67.88;32.70;;;4.80;99.90;;;;;;4958017;28;20050;-86
2021/12/28 01:10:07;;;;;;;62.00;29.50;;;4.90;99.90;;;;;;4974617;28;20071;-86
2021/12/28 01:12:33;;;;;;;72.60;32.35;;;4.80;99.90;;;;;;4958530;28;20477;-86
2021/12/28 01:14:59;;;;;;;79.30;34.67;;;4.90;99.90;;;;;;4974239;28;20057;-86
2021/12/28 01:17:25;;;;;;;85.47;35.35;;;4.40;99.90;;;;;;4990309;28;20046;-86
2021/12/28 01:19:51;;;;;;;83.93;36.33;;;4.70;99.90;;;;;;4974668;28;20046;-86
2021/12/28 01:22:17;;;;;;;77.55;34.75;;;5.10;99.90;;;;;;4974176;28;20046;-86
2021/12/28 01:24:42;;;;;;;97.78;38.63;;;5.90;99.90;;;;;;4974059;28;20058;-87
2021/12/28 01:27:08;;;;;;;72.90;28.40;;;5.20;99.90;;;;;;4973715;28;20050;-86
2021/12/28 01:29:34;;;;;;;100.20;41.90;;;5.00;99.90;;;;;;4957498;28;20057;-86
2021/12/28 01:32:00;;;;;;;104.43;42.38;;;5.00;99.90;;;;;;4990358;28;20516;-86
2021/12/28 01:34:26;;;;;;;110.85;42.30;;;5.50;99.90;;;;;;4990540;28;20050;-86
2021/12/28 01:36:52;;;;;;;99.78;39.22;;;5.70;99.90;;;;;;4960924;28;20046;-86
2021/12/28 01:39:18;;;;;;;110.30;40.42;;;5.20;99.90;;;;;;4960325;28;20082;-86
2021/12/28 01:41:44;;;;;;;133.40;46.28;;;6.30;99.90;;;;;;4976678;28;20050;-86
2021/12/28 01:44:11;;;;;;;146.95;49.50;;;5.80;99.90;;;;;;4976592;28;20049;-86
2021/12/28 01:46:38;;;;;;;152.35;49.55;;;6.10;99.90;;;;;;4959964;28;20058;-86
2021/12/28 01:49:06;;;;;;;163.30;49.10;;;6.30;99.90;;;;;;4959950;28;20109;-86
2021/12/28 01:51:35;;;;;;;152.88;50.92;;;5.60;99.90;;;;;;4960511;28;20054;-86
2021/12/28 01:54:04;;;;;;;128.10;42.47;;;5.30;99.90;;;;;;4976842;28;20046;-85
2021/12/28 01:56:34;;;;;;;156.70;49.47;;;5.70;99.90;;;;;;4976195;28;20046;-86
2021/12/28 01:59:00;;;;;;;143.68;45.08;;;5.60;99.90;;;;;;4960199;28;20163;-86
2021/12/28 02:01:26;;;;;;;182.48;50.92;;;5.90;99.90;;;;;;4960366;28;20061;-86
2021/12/28 02:03:53;;;;;;;188.98;51.78;;;6.40;99.90;;;;;;4976495;28;20058;-86
2021/12/28 02:06:19;;;;;;;194.90;53.10;;;5.60;99.90;;;;;;4966334;28;20089;-86
2021/12/28 02:08:45;;;;;;;200.00;53.22;;;5.50;99.90;;;;;;4966667;28;20104;-85
2021/12/28 02:11:13;;;;;;;210.93;53.83;;;6.10;99.90;;;;;;4979511;28;20100;-86
2021/12/28 02:13:40;;;;;;;183.63;50.92;;;6.40;99.90;;;;;;4992244;28;20133;-86
2021/12/28 02:16:06;;;;;;;218.88;54.67;;;6.00;99.90;;;;;;4959992;28;20050;-86
2021/12/28 02:18:33;;;;;;;272.98;58.78;;;5.80;99.90;;;;;;4975861;28;20047;-86
2021/12/28 02:21:00;;;;;;;202.73;53.90;;;6.20;99.90;;;;;;4975848;28;20069;-86
2021/12/28 02:23:26;;;;;;;300.90;62.78;;;5.80;99.90;;;;;;4975793;28;20520;-86
2021/12/28 02:25:53;;;;;;;257.23;60.47;;;6.60;99.90;;;;;;4975881;28;20073;-86
2021/12/28 02:28:19;;;;;;;217.32;52.95;;;6.50;99.90;;;;;;4975982;28;20097;-85
2021/12/28 02:30:49;;;;;;;273.20;62.25;;;5.50;99.90;;;;;;4959136;28;20113;-86
2021/12/28 02:33:17;;;;;;;379.08;68.38;;;7.00;99.90;;;;;;4959042;28;20073;-86
2021/12/28 02:35:43;;;;;;;221.45;54.97;;;6.00;99.90;;;;;;4959747;28;20061;-86
2021/12/28 02:38:10;;;;;;;235.85;56.85;;;6.60;99.90;;;;;;4975785;28;20096;-86
2021/12/28 02:40:37;;;;;;;243.50;59.63;;;6.30;99.90;;;;;;4960664;28;20050;-86
2021/12/28 02:43:06;;;;;;;268.40;58.92;;;5.90;99.90;;;;;;4977569;28;20054;-85
2021/12/28 02:45:36;;;;;;;290.30;65.18;;;6.30;99.90;;;;;;4960851;28;20069;-86
2021/12/28 02:48:03;;;;;;;299.92;61.75;;;6.30;99.90;;;;;;4968607;28;20038;-86
2021/12/28 02:50:42;;;;;;;305.17;62.92;;;6.10;99.90;;;;;;4995184;28;20116;-86
2021/12/28 02:53:10;;;;;;;225.10;49.95;;;6.20;99.90;;;;;;5010987;28;20058;-85
2021/12/28 02:55:37;;;;;;;363.90;68.85;;;5.90;99.90;;;;;;4975530;28;20904;-86
2021/12/28 02:58:06;;;;;;;316.88;64.22;;;6.20;99.90;;;;;;4993419;28;20109;-86
2021/12/28 03:00:54;;;;;;;311.02;62.35;;;6.30;99.90;;;;;;4957092;28;20062;-86
2021/12/28 03:03:22;;;;;;;241.82;55.58;;;6.20;99.90;;;;;;4941012;28;20109;-86
2021/12/28 03:05:50;;;;;;;268.88;60.90;;;6.30;99.90;;;;;;4939933;28;20051;-86
2021/12/28 03:08:19;;;;;;;266.05;59.85;;;6.30;99.90;;;;;;4940441;28;20101;-86
2021/12/28 03:10:45;;;;;;;264.13;60.58;;;6.40;99.90;;;;;;4940511;28;20125;-86
2021/12/28 03:13:18;;;;;;;244.98;57.13;;;6.40;99.90;;;;;;4940539;28;20393;-86
2021/12/28 03:15:44;;;;;;;238.30;58.45;;;6.40;99.90;;;;;;4956245;28;20146;-86
2021/12/28 03:18:09;;;;;;;254.85;63.10;;;6.40;99.90;;;;;;4971968;28;20054;-86
2021/12/28 03:20:35;;;;;;;261.00;58.28;;;6.40;99.90;;;;;;4955909;28;20046;-85
2021/12/28 03:23:02;;;;;;;225.13;58.83;;;6.50;99.90;;;;;;4955826;28;20046;-86
2021/12/28 03:25:27;;;;;;;195.30;47.67;;;6.90;99.90;;;;;;4955685;28;20841;-86
2021/12/28 03:27:53;;;;;;;260.48;58.08;;;5.20;99.90;;;;;;4956208;28;20148;-85
2021/12/28 03:30:19;;;;;;;251.13;62.35;;;7.50;99.90;;;;;;4955661;28;20101;-85
2021/12/28 03:32:45;;;;;;;261.05;60.63;;;6.30;99.90;;;;;;4955293;28;20064;-85
2021/12/28 03:35:14;;;;;;;197.00;53.20;;;6.50;99.90;;;;;;4971592;28;20061;-86
2021/12/28 03:37:40;;;;;;;225.48;58.50;;;6.60;99.90;;;;;;4939340;28;20149;-86
2021/12/28 03:40:11;;;;;;;179.80;50.22;;;6.70;99.90;;;;;;4955167;28;20054;-86
2021/12/28 03:42:37;;;;;;;200.18;53.72;;;6.70;99.90;;;;;;4972793;28;20065;-86
2021/12/28 03:45:04;;;;;;;197.55;51.03;;;6.90;99.90;;;;;;4954588;28;20050;-86
2021/12/28 03:47:29;;;;;;;228.50;56.45;;;6.70;99.90;;;;;;4938879;28;20051;-86
2021/12/28 03:49:55;;;;;;;231.43;56.10;;;6.60;99.90;;;;;;4970149;28;20060;-85
2021/12/28 03:52:21;;;;;;;213.27;54.88;;;7.30;99.90;;;;;;4970269;28;20058;-86
2021/12/28 03:54:47;;;;;;;226.60;57.28;;;6.50;99.90;;;;;;4972016;28;20054;-86
2021/12/28 03:57:12;;;;;;;230.93;56.40;;;6.60;99.90;;;;;;4938062;28;20153;-86
2021/12/28 03:59:38;;;;;;;175.63;49.10;;;7.40;99.90;;;;;;4969045;28;20096;-86
2021/12/28 04:02:04;;;;;;;234.30;58.40;;;6.50;99.90;;;;;;4973736;28;20054;-86
2021/12/28 04:04:31;;;;;;;206.57;54.50;;;7.60;99.90;;;;;;4973691;28;20054;-86
2021/12/28 04:06:56;;;;;;;202.30;54.38;;;6.70;99.90;;;;;;4973647;28;20497;-86
2021/12/28 04:09:45;;;;;;;166.45;49.92;;;6.80;99.90;;;;;;4958131;28;20149;-86
2021/12/28 04:12:08;;;;;;;206.40;55.42;;;6.50;99.90;;;;;;4991478;28;20603;-86
2021/12/28 04:14:34;;;;;;;200.43;55.53;;;6.80;99.90;;;;;;4991712;28;20074;-86
2021/12/28 04:16:59;;;;;;;216.32;56.72;;;6.60;99.90;;;;;;4973494;28;20050;-86
2021/12/28 04:19:25;;;;;;;210.27;55.63;;;7.30;99.90;;;;;;4973592;28;20047;-86
2021/12/28 04:21:51;;;;;;;204.10;51.20;;;6.80;99.90;;;;;;4957254;28;20053;-86
2021/12/28 04:24:16;;;;;;;197.82;53.65;;;6.70;99.90;;;;;;4989482;28;20053;-86
2021/12/28 04:26:42;;;;;;;194.48;54.28;;;7.10;99.90;;;;;;4973380;28;20069;-86
2021/12/28 04:29:08;;;;;;;198.82;54.35;;;6.90;99.90;;;;;;4973040;28;20076;-86
2021/12/28 04:31:34;;;;;;;203.82;55.63;;;7.50;99.90;;;;;;4989349;28;20456;-86
2021/12/28 04:34:01;;;;;;;184.90;55.20;;;7.10;99.90;;;;;;4956904;28;20504;-86
2021/12/28 04:36:26;;;;;;;190.38;55.85;;;6.70;99.90;;;;;;4973261;28;20481;-86
2021/12/28 04:38:52;;;;;;;202.48;53.22;;;7.60;99.90;;;;;;4973585;28;20112;-86
2021/12/28 04:41:18;;;;;;;245.82;61.70;;;7.40;99.90;;;;;;4973182;28;20497;-86
2021/12/28 04:43:46;;;;;;;291.63;64.20;;;6.50;99.90;;;;;;4957178;28;20049;-87
2021/12/28 04:46:12;;;;;;;304.27;67.18;;;7.50;99.90;;;;;;4972919;28;20500;-86
2021/12/28 04:48:37;;;;;;;480.00;85.30;;;5.60;99.90;;;;;;4956984;28;20078;-86
2021/12/28 04:51:04;;;;;;;427.10;76.03;;;6.50;99.90;;;;;;4957117;28;20059;-86
2021/12/28 04:53:30;;;;;;;646.00;95.55;;;6.40;99.90;;;;;;4957475;28;20053;-86
2021/12/28 04:55:57;;;;;;;552.00;88.75;;;6.20;99.90;;;;;;4957511;28;20085;-86
2021/12/28 04:58:22;;;;;;;444.73;72.97;;;5.90;99.90;;;;;;4983713;28;20059;-86
2021/12/28 05:00:50;;;;;;;481.52;78.38;;;6.00;99.90;;;;;;4971600;28;20401;-86
2021/12/28 05:03:20;;;;;;;441.08;77.13;;;5.90;99.90;;;;;;4953639;28;20059;-86
2021/12/28 05:05:48;;;;;;;367.77;66.85;;;5.90;99.90;;;;;;4953425;28;20497;-85
2021/12/28 05:08:14;;;;;;;401.45;69.88;;;5.70;99.90;;;;;;4971910;28;20043;-86
2021/12/28 05:10:41;;;;;;;326.13;64.82;;;5.80;99.90;;;;;;4957720;28;20055;-86
2021/12/28 05:13:08;;;;;;;377.38;70.22;;;5.60;99.90;;;;;;4957724;28;20125;-86
2021/12/28 05:15:34;;;;;;;395.15;71.00;;;6.30;99.90;;;;;;4941131;28;20047;-86
2021/12/28 05:18:01;;;;;;;380.52;67.20;;;6.10;99.90;;;;;;4973915;28;20082;-86
2021/12/28 05:20:26;;;;;;;322.63;60.97;;;5.70;99.90;;;;;;4975395;28;20132;-86
2021/12/28 05:22:52;;;;;;;316.52;59.15;;;5.60;99.90;;;;;;4973531;28;20058;-86
2021/12/28 05:25:19;;;;;;;258.35;55.85;;;5.30;99.90;;;;;;4957293;28;20047;-86
2021/12/28 05:27:45;;;;;;;215.90;52.00;;;5.50;99.90;;;;;;4973478;28;20058;-86
2021/12/28 05:30:12;;;;;;;223.73;52.90;;;5.90;99.90;;;;;;4956772;28;20043;-86
2021/12/28 05:32:38;;;;;;;196.25;49.40;;;4.70;99.90;;;;;;4957003;28;20508;-85
2021/12/28 05:35:05;;;;;;;211.98;51.22;;;6.10;99.90;;;;;;4972805;28;20062;-86
2021/12/28 05:37:31;;;;;;;208.57;48.70;;;5.50;99.90;;;;;;4941074;28;20058;-86
2021/12/28 05:39:57;;;;;;;162.88;46.53;;;5.30;99.90;;;;;;4974620;28;20049;-86
2021/12/28 05:42:23;;;;;;;209.15;48.03;;;5.40;99.90;;;;;;4974320;28;20080;-85
2021/12/28 05:44:48;;;;;;;174.25;45.15;;;5.20;99.90;;;;;;4941099;28;20055;-86
2021/12/28 05:47:14;;;;;;;159.18;43.55;;;5.80;99.90;;;;;;4972782;28;20051;-85
2021/12/28 05:49:41;;;;;;;139.75;41.83;;;5.40;99.90;;;;;;4956964;28;20061;-86
2021/12/28 05:52:07;;;;;;;111.43;33.65;;;5.40;99.90;;;;;;4956760;28;20409;-86
2021/12/28 05:54:33;;;;;;;140.10;41.80;;;5.40;99.90;;;;;;4956552;28;20055;-86
2021/12/28 05:56:58;;;;;;;142.60;41.45;;;5.40;99.90;;;;;;4974079;28;20054;-86
2021/12/28 05:59:24;;;;;;;139.00;40.70;;;5.70;99.90;;;;;;4969915;28;20090;-86
2021/12/28 06:01:50;;;;;;;131.77;37.15;;;5.40;99.90;;;;;;4960395;28;20457;-86
2021/12/28 06:04:16;;;;;;;130.43;40.78;;;5.30;99.90;;;;;;4993696;28;20428;-86
2021/12/28 06:06:41;;;;;;;144.18;39.65;;;5.30;99.90;;;;;;4993895;28;20057;-86
2021/12/28 06:09:07;;;;;;;143.15;38.65;;;5.30;99.90;;;;;;4992087;28;20046;-86
2021/12/28 06:11:32;;;;;;;125.05;38.70;;;5.80;99.90;;;;;;4975776;28;20054;-86
2021/12/28 06:13:58;;;;;;;121.40;37.63;;;5.80;99.90;;;;;;4975807;28;20050;-86
2021/12/28 06:16:24;;;;;;;137.27;39.75;;;5.30;99.90;;;;;;4976200;28;20112;-85
2021/12/28 06:18:49;;;;;;;127.63;39.45;;;5.30;99.90;;;;;;4994326;28;20477;-86
2021/12/28 06:21:16;;;;;;;122.47;36.90;;;5.30;99.90;;;;;;4975393;28;20489;-86
2021/12/28 06:23:42;;;;;;;134.57;40.33;;;5.30;99.90;;;;;;4975797;28;20146;-85
2021/12/28 06:26:08;;;;;;;110.40;35.10;;;4.60;99.90;;;;;;4975909;28;20077;-86
2021/12/28 06:28:34;;;;;;;121.35;37.88;;;5.10;99.90;;;;;;4993675;28;20050;-86
2021/12/28 06:31:00;;;;;;;106.25;35.25;;;5.00;99.90;;;;;;4992160;28;20058;-86
2021/12/28 06:33:26;;;;;;;126.20;38.13;;;5.10;99.90;;;;;;4993159;28;20062;-86
2021/12/28 06:35:52;;;;;;;152.98;41.17;;;5.10;99.90;;;;;;4975872;28;20133;-86
2021/12/28 06:38:18;;;;;;;140.23;41.78;;;5.10;99.90;;;;;;4975594;28;20129;-86
2021/12/28 06:40:45;;;;;;;130.80;37.78;;;5.10;99.90;;;;;;4959376;28;20054;-86
2021/12/28 06:43:11;;;;;;;151.50;39.67;;;5.10;99.90;;;;;;4993226;28;20176;-86
2021/12/28 06:45:37;;;;;;;147.93;41.90;;;5.10;99.90;;;;;;4975414;28;20155;-85
2021/12/28 06:48:03;;;;;;;154.98;40.13;;;5.10;99.90;;;;;;4959275;28;20156;-86
2021/12/28 06:50:29;;;;;;;158.75;41.30;;;5.20;99.90;;;;;;4975692;28;20081;-86
2021/12/28 06:52:55;;;;;;;145.10;41.65;;;5.30;99.90;;;;;;4975466;28;20063;-86
2021/12/28 06:55:21;;;;;;;145.43;41.05;;;6.10;99.90;;;;;;4992806;28;20061;-85
2021/12/28 06:57:46;;;;;;;137.70;39.92;;;5.20;99.90;;;;;;4975212;28;20060;-86
2021/12/28 07:00:16;;;;;;;127.03;40.08;;;5.20;99.90;;;;;;4955550;28;20141;-85
2021/12/28 07:02:42;;;;;;;133.65;37.83;;;5.20;99.90;;;;;;4940201;28;20051;-85
2021/12/28 07:05:09;;;;;;;137.52;40.45;;;5.20;99.90;;;;;;4973159;28;20110;-86
2021/12/28 07:07:35;;;;;;;123.68;36.50;;;5.20;99.90;;;;;;4955570;28;20142;-85
2021/12/28 07:10:01;;;;;;;128.82;41.15;;;5.20;99.90;;;;;;4955271;28;20059;-86
2021/12/28 07:12:27;;;;;;;118.97;36.95;;;5.30;99.90;;;;;;4955302;28;20421;-85
2021/12/28 07:14:53;;;;;;;132.00;38.00;;;5.30;99.90;;;;;;4971469;28;20062;-86
2021/12/28 07:17:19;;;;;;;130.13;37.08;;;5.30;99.90;;;;;;4971427;28;20150;-86
2021/12/28 07:19:46;;;;;;;110.35;35.67;;;5.30;99.90;;;;;;4973255;28;20051;-86
2021/12/28 07:22:12;;;;;;;103.53;35.95;;;5.40;99.90;;;;;;4973001;28;20054;-86
2021/12/28 07:24:38;;;;;;;100.75;34.08;;;5.40;99.90;;;;;;4972988;28;20054;-86
2021/12/28 07:27:04;;;;;;;93.90;30.77;;;5.40;99.90;;;;;;4939637;28;20043;-85
2021/12/28 07:29:30;;;;;;;88.20;31.85;;;5.40;99.90;;;;;;4971812;28;20093;-86
2021/12/28 07:31:55;;;;;;;91.78;31.52;;;5.50;99.90;;;;;;4970507;28;20129;-86
2021/12/28 07:34:21;;;;;;;91.57;32.20;;;5.50;99.90;;;;;;4956119;28;20649;-86
2021/12/28 07:36:47;;;;;;;91.65;30.55;;;5.50;99.90;;;;;;4971929;28;20054;-86
2021/12/28 07:39:13;;;;;;;90.05;31.45;;;6.10;99.90;;;;;;4955239;28;20094;-84
2021/12/28 07:41:39;;;;;;;83.55;30.77;;;5.50;99.90;;;;;;4973175;28;20086;-84
2021/12/28 07:44:06;;;;;;;90.30;30.02;;;5.50;99.90;;;;;;4956488;28;20051;-84
2021/12/28 07:46:32;;;;;;;77.93;31.92;;;6.00;99.90;;;;;;4972107;28;20060;-84
2021/12/28 07:48:57;;;;;;;91.63;28.58;;;5.50;99.90;;;;;;4973811;28;20545;-84
2021/12/28 07:51:23;;;;;;;78.22;28.52;;;5.50;99.90;;;;;;4972418;28;20125;-84
2021/12/28 07:53:48;;;;;;;72.97;27.85;;;6.20;99.90;;;;;;4951593;28;20053;-84
2021/12/28 07:56:14;;;;;;;74.47;26.08;;;5.50;99.90;;;;;;4967861;28;20093;-84
2021/12/28 07:58:40;;;;;;;78.05;26.30;;;5.50;99.90;;;;;;4975220;28;20509;-84
2021/12/28 08:01:06;;;;;;;60.95;25.45;;;5.90;99.90;;;;;;4970434;28;20054;-84
2021/12/28 08:03:34;;;;;;;63.08;24.98;;;5.60;99.90;;;;;;4988482;28;20100;-84
2021/12/28 08:05:59;;;;;;;56.92;23.45;;;5.60;99.90;;;;;;4970631;28;20480;-84
2021/12/28 08:08:25;;;;;;;65.07;22.90;;;5.50;99.90;;;;;;4970841;28;20054;-84
2021/12/28 08:10:51;;;;;;;56.33;22.02;;;6.70;99.90;;;;;;4987925;28;20065;-84
2021/12/28 08:13:17;;;;;;;59.67;23.23;;;5.30;99.90;;;;;;4988422;28;20049;-84
2021/12/28 08:15:43;;;;;;;53.90;20.80;;;5.50;99.90;;;;;;4986838;28;20054;-84
2021/12/28 08:18:09;;;;;;;54.22;22.00;;;5.60;99.90;;;;;;4971191;28;20121;-84
2021/12/28 08:20:36;;;;;;;49.67;19.98;;;6.20;99.90;;;;;;4970670;28;20501;-84
2021/12/28 08:23:02;;;;;;;53.58;22.85;;;5.90;99.90;;;;;;4970588;28;20061;-84
2021/12/28 08:25:28;;;;;;;40.50;18.70;;;6.20;99.90;;;;;;4954380;28;20057;-84
2021/12/28 08:27:54;;;;;;;42.53;20.05;;;5.50;99.90;;;;;;4955050;28;20397;-84
2021/12/28 08:30:20;;;;;;;42.63;17.63;;;6.00;99.90;;;;;;4986707;28;20053;-84
2021/12/28 08:32:46;;;;;;;45.28;18.92;;;6.30;99.90;;;;;;4970787;28;20070;-84
2021/12/28 08:35:14;;;;;;;42.47;17.73;;;5.80;99.90;;;;;;4972694;28;20057;-84
2021/12/28 08:37:41;;;;;;;43.78;17.40;;;5.60;99.90;;;;;;4974626;28;20051;-83
2021/12/28 08:40:08;;;;;;;29.10;12.63;;;6.20;99.90;;;;;;4991844;28;20058;-84
2021/12/28 08:42:34;;;;;;;43.92;17.02;;;5.90;99.90;;;;;;4987426;28;20362;-84
2021/12/28 08:45:00;;;;;;;44.20;17.05;;;5.90;99.90;;;;;;4974666;28;20089;-84
2021/12/28 08:47:27;;;;;;;48.67;16.25;;;5.90;99.90;;;;;;4975656;28;20062;-84
2021/12/28 08:49:58;;;;;;;50.67;15.68;;;6.40;99.90;;;;;;4991876;28;20749;-84
2021/12/28 08:52:24;;;;;;;36.78;14.95;;;6.10;99.90;;;;;;4959733;28;20050;-84
2021/12/28 08:54:50;;;;;;;38.47;15.85;;;6.70;99.90;;;;;;4976250;28;20065;-84
2021/12/28 08:57:20;;;;;;;40.35;13.63;;;6.20;99.90;;;;;;5003240;28;20129;-83
2021/12/28 08:59:46;;;;;;;37.53;13.43;;;6.00;99.90;;;;;;4969124;28;20058;-83
2021/12/28 09:02:12;;;;;;;37.85;12.85;;;6.30;99.90;;;;;;4983881;28;20103;-84
2021/12/28 09:04:43;;;;;;;35.42;13.23;;;6.30;99.90;;;;;;4994397;28;20054;-84
2021/12/28 09:07:10;;;;;;;28.75;12.57;;;6.20;99.90;;;;;;4991044;28;20054;-84
2021/12/28 09:09:36;;;;;;;32.85;12.32;;;5.90;99.90;;;;;;4974209;28;20517;-84
2021/12/28 09:12:02;;;;;;;28.08;11.77;;;6.20;99.90;;;;;;4989991;28;20055;-84
2021/12/28 09:14:27;;;;;;;28.90;11.18;;;6.20;99.90;;;;;;4991135;28;20046;-84
2021/12/28 09:16:53;;;;;;;29.13;11.48;;;7.20;99.90;;;;;;4973776;28;20064;-84
2021/12/28 09:19:19;;;;;;;31.23;11.13;;;6.50;99.90;;;;;;4957194;28;20057;-84
2021/12/28 09:21:45;;;;;;;29.55;10.20;;;6.50;99.90;;;;;;4973278;28;20149;-83
2021/12/28 09:24:10;;;;;;;24.38;9.70;;;7.20;99.90;;;;;;4957194;28;20047;-83
2021/12/28 09:26:36;;;;;;;24.65;9.68;;;6.70;99.90;;;;;;4991004;28;20046;-83
2021/12/28 09:29:02;;;;;;;25.75;9.27;;;6.80;99.90;;;;;;4972992;28;20524;-84
2021/12/28 09:31:27;;;;;;;20.88;9.35;;;6.90;99.90;;;;;;4956978;28;20058;-84
2021/12/28 09:33:53;;;;;;;22.48;8.65;;;7.00;99.90;;;;;;4972978;28;20046;-84
2021/12/28 09:36:19;;;;;;;25.38;9.13;;;7.00;99.90;;;;;;4956874;28;20058;-84
2021/12/28 09:38:45;;;;;;;27.95;10.45;;;7.00;99.90;;;;;;4988612;28;20053;-84
2021/12/28 09:41:12;;;;;;;24.90;9.32;;;7.00;99.90;;;;;;4990563;28;20065;-84
2021/12/28 09:43:38;;;;;;;27.45;9.80;;;7.00;99.90;;;;;;4972649;28;20050;-84
2021/12/28 09:46:05;;;;;;;29.52;9.65;;;7.00;99.90;;;;;;4957169;28;20046;-84
2021/12/28 09:48:32;;;;;;;23.77;9.27;;;7.00;99.90;;;;;;4989552;28;20053;-84
2021/12/28 09:50:58;;;;;;;31.25;10.15;;;7.00;99.90;;;;;;4957015;28;20054;-85
2021/12/28 09:53:23;;;;;;;30.55;8.93;;;7.00;99.90;;;;;;4956747;28;20058;-84
2021/12/28 09:55:49;;;;;;;19.60;7.45;;;7.10;99.90;;;;;;4955671;28;20054;-84
2021/12/28 09:58:15;;;;;;;39.38;10.57;;;7.10;99.90;;;;;;4956537;28;20093;-84
2021/12/28 10:00:40;;;;;;;26.33;8.82;;;7.20;99.90;;;;;;4990630;28;20469;-84
2021/12/28 10:03:06;;;;;;;25.25;8.82;;;7.20;99.90;;;;;;4990411;28;20129;-84
2021/12/28 10:05:33;;;;;;;28.25;9.43;;;7.20;99.90;;;;;;4972878;28;20050;-85
2021/12/28 10:08:01;;;;;;;26.67;8.13;;;7.20;99.90;;;;;;4956670;28;20050;-85
2021/12/28 10:10:33;;;;;;;23.95;7.18;;;7.20;99.90;;;;;;4973087;28;20393;-84
2021/12/28 10:13:01;;;;;;;31.55;9.55;;;7.20;99.90;;;;;;4990318;28;20603;-84
2021/12/28 10:15:31;;;;;;;28.20;8.30;;;7.30;99.90;;;;;;4990404;28;20117;-84
2021/12/28 10:18:02;;;;;;;25.45;8.82;;;7.20;99.90;;;;;;4988847;28;20057;-84
2021/12/28 10:20:31;;;;;;;20.95;7.05;;;7.20;99.90;;;;;;4956292;28;20899;-84
2021/12/28 10:23:01;;;;;;;21.35;7.78;;;7.20;99.90;;;;;;4973033;28;20149;-84
2021/12/28 10:25:30;;;;;;;27.05;7.78;;;7.20;99.90;;;;;;4990060;28;20046;-84
2021/12/28 10:28:01;;;;;;;25.40;7.78;;;8.00;99.90;;;;;;4956561;28;20564;-84
2021/12/28 10:30:40;;;;;;;24.52;8.45;;;7.30;99.90;;;;;;4955916;28;20532;-84
2021/12/28 10:33:11;;;;;;;16.98;6.38;;;7.30;99.90;;;;;;4988194;28;20093;-84
2021/12/28 10:35:41;;;;;;;20.10;7.90;;;7.40;99.90;;;;;;4972200;28;20104;-84
2021/12/28 10:38:15;;;;;;;17.98;7.55;;;7.40;99.90;;;;;;4971968;28;20133;-84
2021/12/28 10:41:06;;;;;;;25.27;8.30;;;7.40;99.90;;;;;;4972583;28;20065;-84
2021/12/28 10:43:35;;;;;;;23.35;7.63;;;8.20;99.90;;;;;;4956611;28;20058;-85
2021/12/28 10:46:04;;;;;;;24.58;8.35;;;7.50;99.90;;;;;;4989926;28;20054;-85
2021/12/28 10:48:51;;;;;;;22.88;7.18;;;7.50;99.90;;;;;;4988531;28;20051;-85
2021/12/28 10:51:21;;;;;;;26.02;7.70;;;7.50;99.90;;;;;;4956149;28;20046;-85
2021/12/28 10:56:31;;;;;;;25.67;8.18;;;7.40;99.90;;;;;;4972626;28;20069;-86
2021/12/28 10:58:58;;;;;;;31.58;9.43;;;7.40;99.90;;;;;;4987929;28;20066;-86
2021/12/28 11:01:27;;;;;;;33.35;10.25;;;7.30;99.90;;;;;;4956249;28;20053;-86
2021/12/28 11:03:55;;;;;;;23.27;9.10;;;7.30;99.90;;;;;;4991360;28;20046;-85
2021/12/28 11:06:29;;;;;;;27.35;9.68;;;7.20;99.90;;;;;;4976985;28;20082;-86
2021/12/28 11:08:58;;;;;;;25.65;10.55;;;8.20;99.90;;;;;;4960509;28;20054;-85
2021/12/28 11:11:26;;;;;;;32.38;11.10;;;7.30;99.90;;;;;;4962453;28;20618;-86
2021/12/28 11:13:57;;;;;;;33.92;11.27;;;7.30;99.90;;;;;;4977254;28;20158;-86
2021/12/28 11:16:28;;;;;;;22.75;8.65;;;8.30;99.90;;;;;;4961028;28;20054;-86
2021/12/28 11:18:58;;;;;;;29.63;12.15;;;7.30;99.90;;;;;;4977133;28;20408;-86
2021/12/28 11:21:27;;;;;;;30.60;10.85;;;8.10;99.90;;;;;;4961061;28;20057;-87
2021/12/28 11:24:00;;;;;;;27.13;11.30;;;7.60;99.90;;;;;;4995144;28;20050;-87
2021/12/28 11:26:37;;;;;;;33.63;11.85;;;8.30;99.90;;;;;;4977736;28;20058;-87
2021/12/28 11:29:22;;;;;;;32.45;11.48;;;7.30;99.90;;;;;;4960955;28;20038;-87
2021/12/28 11:31:58;;;;;;;30.50;12.77;;;8.10;99.90;;;;;;4976727;28;20053;-87
2021/12/28 11:34:28;;;;;;;33.75;12.82;;;7.30;99.90;;;;;;4960340;28;20149;-87
2021/12/28 11:37:15;;;;;;;;;;;;;;;;;;;;;
2021/12/28 11:39:48;;;;;;;;;;;6.90;99.90;;;;;;4993264;28;20112;-86
2021/12/28 11:42:20;;;;;;;38.30;14.05;;;7.80;99.90;;;;;;4960170;28;19921;-86
2021/12/28 11:44:49;;;;;;;39.47;13.90;;;8.00;99.90;;;;;;4975700;28;20461;-87
2021/12/28 11:47:16;;;;;;;34.15;14.93;;;7.40;99.90;;;;;;4976245;28;20053;-87
2021/12/28 11:49:44;;;;;;;35.15;14.15;;;6.70;99.90;;;;;;4975276;28;20061;-87
2021/12/28 11:52:23;;;;;;;37.75;14.50;;;8.20;99.90;;;;;;4959786;28;20066;-87
2021/12/28 11:55:00;;;;;;;38.72;14.70;;;8.00;99.90;;;;;;4993499;28;20050;-86
2021/12/28 11:57:29;;;;;;;31.25;13.63;;;7.70;99.90;;;;;;4959881;28;20050;-87
2021/12/28 12:00:04;;;;;;;35.38;14.32;;;7.90;99.90;;;;;;4942293;28;20449;-88
2021/12/28 12:02:43;;;;;;;33.10;14.70;;;7.70;99.90;;;;;;4941070;28;20120;-88
2021/12/28 12:05:27;;;;;;;29.52;13.40;;;7.90;99.90;;;;;;4973488;28;20413;-87
2021/12/28 12:08:06;;;;;;;31.50;13.95;;;7.50;99.90;;;;;;4957916;28;20138;-88
2021/12/28 12:10:35;;;;;;;38.67;15.48;;;7.60;99.90;;;;;;4941129;28;20086;-88
2021/12/28 12:13:08;;;;;;;34.75;13.82;;;7.80;99.90;;;;;;4956698;28;20082;-87
2021/12/28 12:15:39;;;;;;;32.50;15.15;;;7.70;99.90;;;;;;4940434;28;20050;-88
2021/12/28 12:18:09;;;;;;;26.30;13.73;;;8.10;99.90;;;;;;4939602;28;20065;-88
2021/12/28 12:20:44;;;;;;;31.63;13.82;;;8.10;99.90;;;;;;4940716;28;20101;-88
2021/12/28 12:23:18;;;;;;;33.25;13.23;;;8.10;99.90;;;;;;4956695;28;20397;-89
2021/12/28 12:26:01;;;;;;;32.40;13.73;;;8.50;99.90;;;;;;4940798;28;20050;-89
2021/12/28 12:28:34;;;;;;;26.13;12.85;;;7.50;99.90;;;;;;4940690;28;20595;-88
2021/12/28 12:31:04;;;;;;;33.45;13.45;;;7.20;99.90;;;;;;4972179;28;20050;-87
2021/12/28 12:33:40;;;;;;;24.15;12.88;;;7.60;99.90;;;;;;4955421;28;20417;-88
2021/12/28 12:36:17;;;;;;;29.50;14.05;;;7.60;99.90;;;;;;4939396;28;20057;-88
2021/12/28 12:38:49;;;;;;;28.58;13.57;;;7.70;99.90;;;;;;4955440;28;20046;-88
2021/12/28 12:41:17;;;;;;;24.83;11.90;;;7.80;99.90;;;;;;4939060;28;20055;-88
2021/12/28 12:43:53;;;;;;;25.95;13.23;;;7.50;99.90;;;;;;4939690;28;20047;-88